Southlake's Hourly Summary for Sunday, March 19, 2017
Hour Temp
(f)
RH
(%)
Solar Rad.
(MJ/m2)
Rainfall
(in)
Wind
(mph)
3/19/2017 12:00 AM 66 90 0 0 1.19
3/19/2017 1:00 AM 63 96 0 0 0.39
3/19/2017 2:00 AM 61 87 0 0 0.67
3/19/2017 3:00 AM 60 96 0 0 1.06
3/19/2017 4:00 AM 60 84 0 0 1.68
3/19/2017 5:00 AM 64 66 0 0 3.58
3/19/2017 6:00 AM 63 87 0 0 2.01
3/19/2017 7:00 AM 63 84 0.01 0 3.19
3/19/2017 8:00 AM 64 80 0.28 0 5.87
3/19/2017 9:00 AM 65 83 0.46 0 7.21
3/19/2017 10:00 AM 68 66 1.49 0 4.87
3/19/2017 11:00 AM 74 78 2.55 0 6.04
3/19/2017 12:00 PM 77 99 3.06 0 8.22
3/19/2017 1:00 PM 80 99 3.18 0 8.05
3/19/2017 2:00 PM 82 97 3.28 0 8.89
3/19/2017 3:00 PM 84 100 2.88 0 9.12
3/19/2017 4:00 PM 84 99 2.29 0 8.39
3/19/2017 5:00 PM 84 93 1.68 0 9.12
3/19/2017 6:00 PM 83 47 0.86 0 8.33
3/19/2017 7:00 PM 80 56 0.18 0 8.16
3/19/2017 8:00 PM 77 59 0 0 8.89
3/19/2017 9:00 PM 76 60 0 0 9.34
3/19/2017 10:00 PM 74 59 0 0 7.78
3/19/2017 11:00 PM 73 72 0 0 8.05
Data Summary 71 80 22.20 0.00 5.84